Time;durP1;ratioP1;P1;durP2;ratioP2;P2;SDS_P1;SDS_P2;PMS_P1;PMS_P2;Temp;Humidity;BMP_temperature;BMP_pressure;BME280_temperature;BME280_humidity;BME280_pressure;Samples;Min_cycle;Max_cycle;Signal;HPM_P1;HPM_P2
2021/11/09 00:00:18;;;;;;;8.95;5.20;;;;;;;14.76;48.95;94153.22;4997560;28;20041;-76
2021/11/09 00:02:45;;;;;;;7.03;5.10;;;;;;;14.89;48.88;94167.41;5001947;28;20260;-76
2021/11/09 00:05:16;;;;;;;9.20;4.78;;;;;;;14.91;48.52;94162.53;4995908;28;20092;-75
2021/11/09 00:07:54;;;;;;;7.60;4.88;;;;;;;14.97;48.39;94148.56;5006700;28;20111;-76
2021/11/09 00:10:22;;;;;;;8.70;5.13;;;;;;;14.99;48.54;94161.63;4995789;28;20116;-77
2021/11/09 00:12:52;;;;;;;7.93;5.38;;;;;;;15.08;48.00;94159.66;4990060;28;20017;-75
2021/11/09 00:15:21;;;;;;;10.18;6.28;;;;;;;15.28;47.74;94163.34;5003564;28;20107;-75
2021/11/09 00:17:49;;;;;;;20.13;7.90;;;;;;;15.30;47.68;94158.47;4998931;28;20044;-75
2021/11/09 00:20:21;;;;;;;23.58;10.23;;;;;;;14.89;48.20;94137.97;4998381;28;20541;-74
2021/11/09 00:22:47;;;;;;;15.27;7.30;;;;;;;14.96;48.77;94165.00;5006475;28;20045;-73
2021/11/09 00:25:15;;;;;;;11.80;6.10;;;;;;;14.92;48.83;94156.03;4993439;28;20417;-73
2021/11/09 00:27:41;;;;;;;13.15;6.97;;;;;;;14.45;49.52;94150.19;5022096;28;20120;-74
2021/11/09 00:30:09;;;;;;;8.43;5.57;;;;;;;14.01;50.83;94170.34;5002331;28;20033;-75
2021/11/09 00:32:35;;;;;;;16.95;6.57;;;;;;;14.36;49.98;94177.00;4999407;28;20049;-75
2021/11/09 00:35:00;;;;;;;9.95;6.35;;;;;;;14.47;49.47;94150.66;4994856;28;20717;-76
2021/11/09 00:37:26;;;;;;;8.75;6.57;;;;;;;14.66;49.21;94158.22;5011188;28;20056;-76
2021/11/09 00:39:52;;;;;;;9.65;6.38;;;;;;;14.48;49.35;94158.31;4993074;28;20700;-75
2021/11/09 00:42:18;;;;;;;10.30;6.65;;;;;;;14.77;48.94;94165.47;4990728;28;20401;-75
2021/11/09 00:44:43;;;;;;;13.75;5.82;;;;;;;14.75;48.51;94156.22;5000627;28;20052;-75
2021/11/09 00:47:09;;;;;;;12.10;7.65;;;;;;;14.62;48.75;94138.56;4998959;28;20512;-74
2021/11/09 00:49:34;;;;;;;13.75;6.65;;;;;;;14.66;48.64;94144.81;4996577;28;20042;-76
2021/11/09 00:52:01;;;;;;;10.98;6.80;;;;;;;14.62;48.68;94146.59;4993491;28;20029;-75
2021/11/09 00:54:28;;;;;;;14.35;8.60;;;;;;;14.66;48.48;94152.84;5009588;28;20566;-76
2021/11/09 00:56:54;;;;;;;10.43;6.63;;;;;;;14.79;48.73;94155.22;4991382;28;20512;-75
2021/11/09 00:59:19;;;;;;;8.55;5.95;;;;;;;14.42;48.95;94138.22;4993886;28;20129;-76
2021/11/09 01:01:44;;;;;;;8.43;6.50;;;;;;;14.55;48.87;94145.22;5000963;28;20571;-76
2021/11/09 01:04:10;;;;;;;8.73;6.45;;;;;;;14.58;48.66;94144.56;5000667;28;20037;-76
2021/11/09 01:06:35;;;;;;;10.15;6.28;;;;;;;14.48;48.55;94150.28;4996574;28;20040;-76
2021/11/09 01:09:04;;;;;;;8.57;5.95;;;;;;;14.50;48.39;94156.13;5002020;28;20034;-76
2021/11/09 01:11:29;;;;;;;10.48;6.05;;;;;;;14.53;47.75;94149.31;4986849;28;20042;-76
2021/11/09 01:13:56;;;;;;;11.73;6.05;;;;;;;14.42;47.95;94154.28;5004150;28;20038;-76
2021/11/09 01:16:22;;;;;;;7.80;5.30;;;;;;;14.40;47.80;94167.22;4998552;28;20600;-76
2021/11/09 01:18:53;;;;;;;7.20;5.78;;;;;;;14.58;47.44;94157.94;4988203;28;20018;-76
2021/11/09 01:21:19;;;;;;;18.48;9.43;;;;;;;14.60;46.86;94163.78;5005321;28;20814;-76
2021/11/09 01:23:49;;;;;;;16.10;9.60;;;;;;;14.41;47.51;94176.81;5000039;28;20525;-75
2021/11/09 01:26:15;;;;;;;28.65;10.80;;;;;;;14.23;48.22;94194.09;4996406;28;20041;-75
2021/11/09 01:28:41;;;;;;;20.45;8.63;;;;;;;14.15;48.19;94202.97;5004283;28;20058;-76
2021/11/09 01:31:08;;;;;;;16.30;7.15;;;;;;;14.05;48.45;94187.31;5001512;28;20496;-76
2021/11/09 01:33:34;;;;;;;19.73;9.23;;;;;;;14.27;48.15;94195.03;4997889;28;20485;-75
2021/11/09 01:36:00;;;;;;;12.52;6.65;;;;;;;14.13;48.33;94187.25;5004390;28;20136;-76
2021/11/09 01:38:36;;;;;;;12.95;7.13;;;;;;;14.26;48.37;94196.13;4999173;28;20038;-75
2021/11/09 01:41:03;;;;;;;12.25;6.95;;;;;;;14.14;48.96;94206.75;5008494;28;20056;-75
2021/11/09 01:43:29;;;;;;;13.57;8.35;;;;;;;14.16;48.79;94191.97;5004348;28;20096;-74
2021/11/09 01:45:55;;;;;;;11.82;7.15;;;;;;;14.08;48.90;94192.03;4999545;28;20040;-74
2021/11/09 01:48:21;;;;;;;13.82;6.43;;;;;;;14.08;49.00;94202.72;4998154;28;20425;-76
2021/11/09 01:50:56;;;;;;;14.00;6.75;;;;;;;14.08;48.62;94176.75;5015777;28;20401;-75
2021/11/09 01:53:22;;;;;;;11.48;6.82;;;;;;;14.31;48.40;94201.28;5009531;28;20544;-75
2021/11/09 01:55:49;;;;;;;12.77;6.85;;;;;;;14.24;48.67;94203.69;5009358;28;20115;-75
2021/11/09 01:58:16;;;;;;;11.07;7.30;;;;;;;14.11;48.42;94181.47;4991877;28;20045;-77
2021/11/09 02:00:46;;;;;;;17.15;8.90;;;;;;;14.06;49.22;94189.66;5004661;28;20107;-76
2021/11/09 02:03:13;;;;;;;16.17;8.23;;;;;;;14.04;49.15;94194.56;5000738;28;20038;-76
2021/11/09 02:05:39;;;;;;;12.98;7.38;;;;;;;14.04;49.40;94199.91;5000158;28;20558;-76
2021/11/09 02:08:05;;;;;;;11.45;6.65;;;;;;;14.15;48.86;94195.75;5007836;28;20041;-76
2021/11/09 02:10:37;;;;;;;11.05;7.10;;;;;;;14.32;48.40;94200.19;5016640;28;20372;-74
2021/11/09 02:13:03;;;;;;;21.75;8.52;;;;;;;14.32;48.35;94200.19;4999947;28;20053;-76
2021/11/09 02:15:30;;;;;;;21.33;10.38;;;;;;;14.21;48.55;94212.38;5000264;28;20629;-75
2021/11/09 02:17:58;;;;;;;12.73;7.45;;;;;;;13.81;49.63;94230.72;4999125;28;20056;-76
2021/11/09 02:20:26;;;;;;;10.70;6.88;;;;;;;13.86;49.28;94219.06;4995988;28;20592;-76
2021/11/09 02:22:53;;;;;;;12.70;6.60;;;;;;;13.82;49.27;94202.88;4995434;28;20033;-76
2021/11/09 02:25:20;;;;;;;16.52;8.20;;;;;;;13.90;49.37;94218.06;5017325;28;20539;-75
2021/11/09 02:27:46;;;;;;;20.60;8.40;;;;;;;13.88;48.99;94219.53;5004658;28;20104;-76
2021/11/09 02:30:15;;;;;;;15.23;7.38;;;;;;;13.83;48.92;94225.06;5001168;28;20041;-76
2021/11/09 02:32:42;;;;;;;13.55;7.47;;;;;;;13.71;49.36;94226.53;5000237;28;20036;-76
2021/11/09 02:35:09;;;;;;;12.93;7.00;;;;;;;13.66;49.31;94224.03;5003351;28;20495;-76
2021/11/09 02:37:35;;;;;;;15.80;8.20;;;;;;;13.85;48.62;94223.63;5003014;28;20041;-75
2021/11/09 02:40:01;;;;;;;12.40;8.27;;;;;;;13.90;48.42;94241.34;5003845;28;20026;-75
2021/11/09 02:42:33;;;;;;;13.40;7.60;;;;;;;13.74;48.80;94241.13;5003990;28;20109;-76
2021/11/09 02:45:08;;;;;;;14.63;7.38;;;;;;;13.65;48.66;94238.50;5002155;28;20041;-76
2021/11/09 02:47:47;;;;;;;16.48;7.13;;;;;;;13.61;48.64;94240.25;5007555;28;20475;-76
2021/11/09 02:50:13;;;;;;;16.48;7.22;;;;;;;13.57;49.13;94236.63;5007182;28;20041;-76
2021/11/09 02:52:46;;;;;;;10.48;6.68;;;;;;;13.46;49.22;94219.38;5006638;28;20038;-76
2021/11/09 02:55:13;;;;;;;11.73;6.90;;;;;;;13.48;49.33;94211.84;4999113;28;20126;-76
2021/11/09 03:00:19;;;;;;;9.50;6.55;;;;;;;13.61;49.10;94236.78;4997656;28;20376;-75
2021/11/09 03:02:54;;;;;;;8.63;6.25;;;;;;;13.51;49.53;94231.75;5008493;28;21125;-76
2021/11/09 03:05:34;;;;;;;10.43;6.78;;;;;;;13.54;49.75;94242.63;4999384;28;20044;-75
2021/11/09 03:08:21;;;;;;;10.82;6.30;;;;;;;13.54;49.58;94242.63;4997999;28;20119;-76
2021/11/09 03:10:49;;;;;;;7.95;5.18;;;;;;;13.48;49.35;94251.91;4999530;28;20803;-75
2021/11/09 03:13:14;;;;;;;8.02;5.50;;;;;;;13.42;49.47;94247.06;5005657;28;20065;-76
2021/11/09 03:15:40;;;;;;;9.50;6.13;;;;;;;13.52;49.32;94260.84;4995221;28;20460;-77
2021/11/09 03:18:12;;;;;;;9.82;6.40;;;;;;;13.44;48.95;94247.53;5007085;28;20056;-76
2021/11/09 03:45:26;;;;;;;9.82;5.88;;;;;;;13.04;49.36;94260.34;4997530;28;20389;-75
2021/11/09 03:47:54;;;;;;;12.70;6.13;;;;;;;13.07;49.41;94270.41;5006574;28;20538;-74
2021/11/09 03:50:23;;;;;;;8.73;5.80;;;;;;;12.95;49.50;94246.25;4997896;28;20249;-76
2021/11/09 03:55:39;;;;;;;8.38;5.63;;;;;;;13.01;49.73;94268.97;4997313;28;20132;-76
2021/11/09 03:58:10;;;;;;;9.90;5.88;;;;;;;12.91;49.35;94246.06;4993217;28;20511;-75
2021/11/09 04:00:47;;;;;;;7.95;5.65;;;;;;;13.02;49.33;94270.56;5002471;28;20043;-75
2021/11/09 04:06:09;;;;;;;8.93;5.32;;;;;;;12.84;49.45;94259.91;4999384;28;20842;-74
2021/11/09 04:08:46;;;;;;;9.40;6.07;;;;;;;12.81;49.75;94262.44;5000196;28;20404;-76
2021/11/09 04:14:45;;;;;;;10.88;5.60;;;;;;;12.81;49.63;94259.78;5008537;28;20504;-76
2021/11/09 04:17:12;;;;;;;8.60;5.65;;;;;;;12.64;50.04;94246.44;4981086;28;20042;-74
2021/11/09 04:19:36;;;;;;;10.55;5.68;;;;;;;12.70;50.11;94261.97;4996465;28;20631;-74
2021/11/09 04:25:21;;;;;;;10.48;5.32;;;;;;;12.66;49.92;94266.38;5001275;28;20562;-75
2021/11/09 05:02:45;;;;;;;20.23;8.85;;;;;;;12.44;50.83;94317.16;4996632;28;20478;-75
2021/11/09 05:10:31;;;;;;;10.93;6.43;;;;;;;12.39;51.92;94315.44;4998064;28;20045;-76
2021/11/09 05:12:57;;;;;;;13.27;7.07;;;;;;;12.46;51.84;94312.31;5003671;28;20279;-76
2021/11/09 05:15:23;;;;;;;12.10;6.50;;;;;;;12.44;51.71;94301.16;5007277;28;20088;-76
2021/11/09 05:17:48;;;;;;;16.42;8.10;;;;;;;12.52;51.53;94312.97;4994698;28;20279;-76
2021/11/09 05:20:13;;;;;;;10.00;6.57;;;;;;;12.31;52.32;94334.09;4991803;28;20137;-76
2021/11/09 05:22:39;;;;;;;12.38;7.07;;;;;;;12.23;52.64;94327.63;4998518;28;20048;-75
2021/11/09 05:25:05;;;;;;;11.68;7.53;;;;;;;12.38;52.41;94334.41;4998087;28;20088;-76
2021/11/09 05:27:31;;;;;;;12.00;7.25;;;;;;;12.51;51.99;94338.06;4999218;28;20028;-77
2021/11/09 05:29:57;;;;;;;9.23;6.45;;;;;;;12.53;51.83;94341.19;4994197;28;20030;-76
2021/11/09 05:32:23;;;;;;;8.32;6.65;;;;;;;12.77;51.96;94361.03;5004327;28;20598;-76
2021/11/09 05:34:48;;;;;;;10.00;6.25;;;;;;;12.97;51.46;94369.50;5001251;28;20317;-76
2021/11/09 05:37:18;;;;;;;12.65;6.70;;;;;;;12.76;51.47;94351.44;4998701;28;20098;-76
2021/11/09 05:39:48;;;;;;;11.63;6.75;;;;;;;12.70;51.62;94344.72;4994808;28;20552;-76
2021/11/09 05:42:14;;;;;;;13.40;7.35;;;;;;;12.68;51.92;94354.09;5000468;28;20140;-76
2021/11/09 05:44:40;;;;;;;11.13;7.13;;;;;;;12.77;51.66;94369.03;4998474;28;20038;-76
2021/11/09 05:47:06;;;;;;;12.15;5.97;;;;;;;12.57;51.88;94364.25;4999222;28;20079;-76
2021/11/09 05:49:32;;;;;;;11.77;5.88;;;;;;;12.99;51.33;94359.31;4987109;28;20030;-76
2021/11/09 05:51:58;;;;;;;10.18;5.82;;;;;;;13.18;50.61;94367.78;4997630;28;20033;-77
2021/11/09 05:54:24;;;;;;;11.15;6.35;;;;;;;12.91;51.09;94378.78;5002920;28;20061;-76
2021/11/09 05:56:49;;;;;;;8.70;5.78;;;;;;;12.82;51.37;94371.53;4997812;28;20052;-76
2021/11/09 05:59:14;;;;;;;10.20;6.07;;;;;;;12.60;51.93;94377.03;4993155;28;20543;-76
2021/11/09 06:01:40;;;;;;;8.65;5.68;;;;;;;12.35;52.18;94361.72;5000032;28;20029;-77
2021/11/09 06:04:06;;;;;;;8.63;6.07;;;;;;;12.18;53.11;94404.31;5000011;28;20478;-76
2021/11/09 06:06:31;;;;;;;8.98;5.50;;;;;;;12.39;52.52;94394.69;5000583;28;20519;-75
2021/11/09 06:08:57;;;;;;;9.40;6.25;;;;;;;12.47;52.18;94423.25;5001108;28;20055;-76
2021/11/09 06:11:22;;;;;;;11.30;6.32;;;;;;;12.29;52.77;94413.63;4992266;28;20049;-75
2021/11/09 06:13:48;;;;;;;8.85;5.35;;;;;;;12.46;52.39;94411.03;5003509;28;20054;-75
2021/11/09 06:16:13;;;;;;;8.07;5.97;;;;;;;12.44;51.70;94365.19;4994139;28;20045;-75
2021/11/09 06:18:39;;;;;;;9.68;6.32;;;;;;;12.83;51.40;94415.03;5000527;28;20034;-75
2021/11/09 06:21:04;;;;;;;11.93;6.78;;;;;;;12.75;51.61;94405.94;4993847;28;20049;-75
2021/11/09 06:23:29;;;;;;;8.63;5.78;;;;;;;12.15;52.71;94405.75;4998328;28;20499;-75
2021/11/09 06:25:55;;;;;;;10.30;6.53;;;;;;;11.74;53.71;94399.88;4999631;28;20557;-75
2021/11/09 06:28:21;;;;;;;9.35;6.20;;;;;;;11.89;53.60;94407.50;4999963;28;20488;-74
2021/11/09 06:30:49;;;;;;;10.00;6.43;;;;;;;11.58;54.34;94407.50;5000810;28;20029;-75
2021/11/09 06:33:16;;;;;;;9.65;5.43;;;;;;;11.93;54.31;94419.91;4999042;28;21211;-76
2021/11/09 06:35:42;;;;;;;7.28;5.53;;;;;;;12.08;53.42;94421.38;5004635;28;20522;-74
2021/11/09 06:38:07;;;;;;;8.45;5.38;;;;;;;12.30;52.73;94417.88;5001536;28;20034;-75
2021/11/09 06:40:33;;;;;;;9.68;6.38;;;;;;;12.44;52.23;94419.31;5002171;28;20040;-76
2021/11/09 06:42:58;;;;;;;9.98;5.28;;;;;;;12.47;51.75;94407.25;5005476;28;20037;-74
2021/11/09 06:45:25;;;;;;;11.75;6.00;;;;;;;12.51;51.82;94396.75;4996381;28;20051;-76
2021/11/09 06:47:52;;;;;;;10.10;5.43;;;;;;;12.62;51.88;94427.41;5007791;28;20033;-76
2021/11/09 06:50:21;;;;;;;9.00;5.68;;;;;;;12.46;51.73;94403.81;5000107;28;20136;-75
2021/11/09 06:52:47;;;;;;;10.27;5.78;;;;;;;12.31;51.86;94382.91;4999103;28;20042;-76
2021/11/09 06:55:12;;;;;;;8.98;6.05;;;;;;;12.47;52.18;94426.69;5000573;28;20060;-75
2021/11/09 06:57:38;;;;;;;8.65;5.57;;;;;;;12.50;52.12;94438.66;5001572;28;20084;-75
2021/11/09 07:00:07;;;;;;;9.48;5.32;;;;;;;12.65;51.72;94434.81;4998416;28;21617;-75
2021/11/09 07:02:35;;;;;;;9.98;5.18;;;;;;;12.52;51.49;94431.09;5002788;28;20447;-75
2021/11/09 07:05:01;;;;;;;8.77;5.20;;;;;;;12.30;51.91;94439.22;5006151;28;20066;-75
2021/11/09 07:07:27;;;;;;;9.15;5.57;;;;;;;12.14;52.46;94440.69;5002394;28;20586;-74
2021/11/09 07:09:52;;;;;;;7.75;5.57;;;;;;;11.98;52.94;94429.63;5003499;28;20587;-74
2021/11/09 07:12:18;;;;;;;8.25;5.57;;;;;;;11.98;53.18;94433.09;5004073;28;20484;-75
2021/11/09 07:14:43;;;;;;;8.52;5.50;;;;;;;12.21;53.19;94454.38;5002125;28;20536;-75
2021/11/09 07:17:10;;;;;;;10.00;5.22;;;;;;;12.01;53.15;94447.72;4998165;28;20930;-75
2021/11/09 07:19:37;;;;;;;10.68;6.30;;;;;;;11.83;53.65;94438.81;4998926;28;20521;-74
2021/11/09 07:22:03;;;;;;;11.45;5.93;;;;;;;12.03;53.35;94472.97;4998651;28;20318;-76
2021/11/09 07:24:31;;;;;;;10.80;6.13;;;;;;;11.89;53.87;94471.47;5000523;28;20033;-76
2021/11/09 07:26:57;;;;;;;9.48;5.18;;;;;;;11.48;54.44;94461.00;4998088;28;20108;-75
2021/11/09 07:29:22;;;;;;;7.53;5.63;;;;;;;11.57;54.68;94481.31;4996315;28;20041;-76
2021/11/09 07:31:49;;;;;;;10.75;4.72;;;;;;;11.67;54.59;94485.59;5002481;28;20093;-75
2021/11/09 07:34:15;;;;;;;11.07;6.43;;;;;;;11.56;54.83;94484.25;4998717;28;20463;-75
2021/11/09 07:36:40;;;;;;;7.90;4.85;;;;;;;11.49;55.08;94489.22;4997352;28;20029;-75
2021/11/09 07:39:07;;;;;;;8.73;5.55;;;;;;;11.42;54.62;94478.97;5000273;28;20486;-75
2021/11/09 07:41:33;;;;;;;9.38;5.88;;;;;;;11.32;55.28;94484.53;5000985;28;20065;-75
2021/11/09 07:44:04;;;;;;;8.05;5.50;;;;;;;11.48;54.85;94498.28;5002876;28;20569;-74
2021/11/09 07:46:31;;;;;;;9.80;4.70;;;;;;;11.42;55.68;94520.78;5004317;28;20064;-75
2021/11/09 07:48:56;;;;;;;7.45;4.75;;;;;;;11.36;55.35;94490.03;5009390;28;20380;-76
2021/11/09 07:51:23;;;;;;;9.77;4.70;;;;;;;11.42;55.47;94515.47;5002130;28;20033;-75
2021/11/09 07:53:49;;;;;;;7.88;4.82;;;;;;;11.31;55.72;94516.78;4995219;28;20044;-75
2021/11/09 07:56:19;;;;;;;8.88;5.35;;;;;;;11.16;55.78;94526.66;5000478;28;20424;-76
2021/11/09 07:58:59;;;;;;;6.30;4.50;;;;;;;11.00;56.16;94551.25;5017550;28;20091;-76
2021/11/09 08:01:41;;;;;;;7.75;4.72;;;;;;;10.58;57.03;94549.66;5000743;28;20034;-75
2021/11/09 08:06:47;;;;;;;7.88;5.43;;;;;;;10.48;57.62;94563.94;5003816;28;20033;-76
2021/11/09 08:09:28;;;;;;;7.43;4.18;;;;;;;10.44;58.63;94560.28;4995710;28;20403;-75
2021/11/09 08:11:54;;;;;;;7.05;4.53;;;;;;;10.30;58.67;94548.81;5001228;28;20045;-76
2021/11/09 08:14:21;;;;;;;9.80;5.63;;;;;;;10.34;59.06;94571.06;5005992;28;20140;-76
2021/11/09 08:16:47;;;;;;;9.40;5.50;;;;;;;10.06;59.44;94567.56;4993636;28;21028;-75
2021/11/09 08:19:13;;;;;;;10.40;5.60;;;;;;;9.94;60.26;94577.06;5002180;28;20335;-77
2021/11/09 08:21:39;;;;;;;9.55;5.13;;;;;;;9.93;59.72;94564.88;5003811;28;20718;-75
2021/11/09 08:24:07;;;;;;;10.18;5.93;;;;;;;10.23;59.65;94590.94;4999092;28;20067;-76
2021/11/09 08:26:33;;;;;;;11.30;6.13;;;;;;;10.01;60.27;94567.66;5001732;28;20037;-76
2021/11/09 08:29:05;;;;;;;8.75;5.55;;;;;;;10.35;59.62;94596.59;4997359;28;20045;-76
2021/11/09 08:31:38;;;;;;;11.98;5.85;;;;;;;10.13;59.48;94575.94;5000048;28;20258;-76
2021/11/09 08:34:04;;;;;;;9.25;5.38;;;;;;;10.37;58.94;94612.31;5003952;28;20117;-77
2021/11/09 08:36:31;;;;;;;7.90;5.18;;;;;;;10.22;59.52;94616.72;4997812;28;20032;-75
2021/11/09 08:39:02;;;;;;;8.18;4.63;;;;;;;10.15;59.21;94605.69;4999955;28;20501;-76
2021/11/09 08:41:37;;;;;;;11.02;6.70;;;;;;;10.10;59.33;94621.72;4999599;28;20727;-76
2021/11/09 08:44:11;;;;;;;9.25;5.57;;;;;;;10.03;59.86;94626.59;5004626;28;20053;-76
2021/11/09 08:46:45;;;;;;;6.00;4.93;;;;;;;9.69;59.71;94580.91;4999298;28;20999;-76
2021/11/09 08:49:12;;;;;;;9.23;4.50;;;;;;;10.01;59.73;94618.16;4998190;28;20045;-74
2021/11/09 08:51:39;;;;;;;7.65;4.88;;;;;;;10.18;59.32;94612.28;5002249;28;20025;-75
2021/11/09 08:54:21;;;;;;;10.98;5.28;;;;;;;10.19;58.90;94616.53;5002461;28;20037;-75
2021/11/09 09:04:59;;;;;;;7.97;4.65;;;;;;;10.28;58.68;94620.09;4999727;28;20044;-74
2021/11/09 09:07:26;;;;;;;10.40;5.82;;;;;;;10.10;58.57;94597.81;5002918;28;20044;-74
2021/11/09 09:09:53;;;;;;;8.88;5.25;;;;;;;10.30;58.62;94608.09;5002405;28;20026;-76
2021/11/09 09:12:19;;;;;;;7.72;4.57;;;;;;;10.36;57.83;94600.03;5004844;28;20053;-75
2021/11/09 09:14:45;;;;;;;9.95;5.65;;;;;;;10.32;58.15;94613.91;5004131;28;20586;-75
2021/11/09 09:17:11;;;;;;;9.13;5.63;;;;;;;10.21;58.58;94615.19;5001048;28;20531;-75
2021/11/09 09:19:41;;;;;;;9.13;5.93;;;;;;;10.39;57.93;94618.09;4999267;28;20535;-75
2021/11/09 09:22:11;;;;;;;8.15;5.25;;;;;;;10.44;57.60;94624.13;4997631;28;20148;-75
2021/11/09 09:29:53;;;;;;;10.23;5.07;;;;;;;10.43;55.98;94640.34;4999382;28;20144;-75
2021/11/09 09:57:11;;;;;;;5.97;3.78;;;;;;;9.24;59.31;94691.94;4988145;28;20045;-75
2021/11/09 09:59:40;;;;;;;5.68;3.75;;;;;;;9.17;59.31;94688.84;4994437;28;20471;-76
2021/11/09 10:02:14;;;;;;;6.78;3.65;;;;;;;9.10;60.12;94691.00;5006065;28;20034;-75
2021/11/09 10:05:11;;;;;;;6.80;4.45;;;;;;;8.92;60.32;94705.78;4996716;28;20046;-75
2021/11/09 10:07:42;;;;;;;7.85;4.80;;;;;;;8.82;60.34;94689.19;4999108;28;20046;-75
2021/11/09 10:10:11;;;;;;;6.55;3.75;;;;;;;9.04;60.29;94718.69;4997146;28;20133;-76
2021/11/09 10:12:55;;;;;;;9.45;4.57;;;;;;;8.91;60.06;94698.09;4998087;28;20017;-75
2021/11/09 10:15:26;;;;;;;9.93;5.50;;;;;;;8.87;60.02;94702.41;4997293;28;20057;-75
2021/11/09 10:17:55;;;;;;;8.57;3.95;;;;;;;8.84;59.99;94713.56;5005058;28;20038;-75
2021/11/09 10:20:28;;;;;;;6.90;3.95;;;;;;;8.58;61.12;94719.09;5007330;28;20037;-75
2021/11/09 10:22:58;;;;;;;6.77;4.43;;;;;;;8.73;61.56;94712.88;4994097;28;20045;-75
2021/11/09 10:25:25;;;;;;;7.28;3.83;;;;;;;8.68;62.37;94720.09;5004437;28;20505;-75
2021/11/09 10:27:57;;;;;;;8.80;3.90;;;;;;;8.72;62.76;94723.75;4998398;28;20495;-75
2021/11/09 10:30:26;;;;;;;7.70;4.18;;;;;;;8.73;62.35;94722.69;4997658;28;20025;-76
2021/11/09 10:32:52;;;;;;;7.07;4.05;;;;;;;8.95;61.82;94726.44;4998960;28;20034;-74
2021/11/09 10:35:19;;;;;;;6.50;3.88;;;;;;;8.85;61.65;94697.34;5003361;28;20045;-75
2021/11/09 10:38:02;;;;;;;8.77;3.85;;;;;;;8.90;62.39;94717.78;4998326;28;20029;-75
2021/11/09 10:40:35;;;;;;;7.30;3.50;;;;;;;8.76;63.35;94706.22;5007324;28;20132;-74
2021/11/09 10:43:04;;;;;;;6.72;3.88;;;;;;;8.85;64.64;94728.44;5002559;28;20545;-75
2021/11/09 10:45:33;;;;;;;8.98;4.68;;;;;;;8.64;64.68;94733.13;5013659;28;20559;-75
2021/11/09 10:48:06;;;;;;;7.60;4.00;;;;;;;8.57;65.20;94730.78;5003329;28;20080;-74
2021/11/09 10:50:44;;;;;;;10.50;5.07;;;;;;;8.55;66.63;94718.88;5008074;28;20389;-75
2021/11/09 10:53:29;;;;;;;8.73;5.28;;;;;;;8.78;66.95;94746.50;4999184;28;20307;-76
2021/11/09 11:06:10;;;;;;;7.78;4.55;;;;;;;8.88;67.18;94746.44;5003231;28;20054;-75
2021/11/09 11:08:37;;;;;;;6.53;3.63;;;;;;;8.64;67.82;94742.94;5004217;28;20048;-75
2021/11/09 11:11:29;;;;;;;8.82;4.75;;;;;;;8.65;68.51;94763.06;5007842;28;20064;-75
2021/11/09 11:14:05;;;;;;;5.95;3.30;;;;;;;8.78;69.30;94773.03;5004384;28;20729;-75
2021/11/09 11:16:37;;;;;;;9.18;5.53;;;;;;;8.85;69.46;94779.59;5005365;28;20053;-74
2021/11/09 11:19:03;;;;;;;7.88;4.22;;;;;;;8.94;69.30;94771.84;5002174;28;20488;-75
2021/11/09 11:21:29;;;;;;;6.50;3.53;;;;;;;8.72;69.41;94747.63;5002992;28;20472;-75
2021/11/09 11:23:57;;;;;;;5.65;3.67;;;;;;;8.92;69.23;94776.63;5002285;28;20084;-75
2021/11/09 11:26:23;;;;;;;8.27;3.80;;;;;;;8.90;69.26;94771.59;5005219;28;20038;-76
2021/11/09 11:28:56;;;;;;;3.88;3.28;;;;;;;8.75;68.54;94774.41;5000686;28;20377;-74
2021/11/09 11:31:22;;;;;;;4.88;3.25;;;;;;;8.58;68.92;94764.19;5004076;28;20041;-75
2021/11/09 11:33:49;;;;;;;8.95;3.47;;;;;;;8.65;69.26;94766.53;5007102;28;20381;-75
2021/11/09 11:36:15;;;;;;;4.40;3.47;;;;;;;8.39;70.06;94749.22;5004068;28;20440;-76
2021/11/09 11:38:48;;;;;;;5.07;3.17;;;;;;;8.52;70.25;94770.59;4996419;28;20037;-75
2021/11/09 11:41:15;;;;;;;8.00;3.97;;;;;;;8.43;70.51;94772.25;4990147;28;20039;-75
2021/11/09 11:43:43;;;;;;;5.55;3.65;;;;;;;8.35;69.93;94804.66;5001956;28;20037;-76
2021/11/09 11:46:10;;;;;;;7.22;3.60;;;;;;;8.27;69.82;94815.81;5007303;28;20048;-75
2021/11/09 11:48:58;;;;;;;8.57;3.42;;;;;;;8.07;68.49;94805.34;4998613;28;20018;-75
2021/11/09 11:51:27;;;;;;;5.63;3.15;;;;;;;7.70;68.78;94795.94;5005037;28;20389;-75
2021/11/09 11:53:54;;;;;;;3.42;2.55;;;;;;;7.82;69.53;94847.81;5003012;28;20041;-75
2021/11/09 11:56:22;;;;;;;3.80;2.15;;;;;;;7.46;69.42;94823.25;5006926;28;20037;-76
2021/11/09 11:58:47;;;;;;;6.30;2.80;;;;;;;7.23;70.64;94840.53;4998237;28;20065;-75
2021/11/09 12:01:39;;;;;;;3.22;2.10;;;;;;;7.46;70.80;94874.34;4996499;28;20132;-76
2021/11/09 12:04:08;;;;;;;3.88;2.63;;;;;;;7.29;70.24;94865.91;4994224;28;20583;-76
2021/11/09 12:06:51;;;;;;;4.20;2.90;;;;;;;7.23;71.00;94874.91;5000254;28;20030;-76
2021/11/09 12:09:32;;;;;;;2.00;1.58;;;;;;;7.19;70.43;94897.69;5003467;28;20049;-75
2021/11/09 12:11:59;;;;;;;1.52;1.40;;;;;;;7.03;71.11;94882.84;4995312;28;20117;-74
2021/11/09 12:14:25;;;;;;;2.95;1.83;;;;;;;7.21;71.43;94900.84;5003188;28;20077;-75
2021/11/09 12:16:52;;;;;;;4.47;2.45;;;;;;;7.16;71.77;94911.41;5006799;28;20705;-76
2021/11/09 12:19:36;;;;;;;5.72;2.47;;;;;;;7.15;72.77;94915.13;4999088;28;20050;-76
2021/11/09 12:22:11;;;;;;;4.50;2.25;;;;;;;6.91;72.89;94883.09;5005458;28;20483;-75
2021/11/09 12:24:48;;;;;;;3.13;2.20;;;;;;;7.21;71.69;94914.06;5000426;28;20064;-75
2021/11/09 12:27:13;;;;;;;4.70;2.25;;;;;;;7.15;71.19;94910.63;5005226;28;20581;-75
2021/11/09 12:29:51;;;;;;;3.63;2.47;;;;;;;7.06;72.00;94928.09;5001499;28;20045;-75
2021/11/09 12:32:37;;;;;;;3.47;2.05;;;;;;;6.94;72.40;94929.41;5001307;28;20041;-76
2021/11/09 12:35:15;;;;;;;2.22;1.63;;;;;;;6.90;72.16;94923.06;5001401;28;20042;-75
2021/11/09 12:37:44;;;;;;;1.38;1.17;;;;;;;6.96;72.20;94929.91;5004635;28;20081;-75
2021/11/09 12:40:43;;;;;;;1.63;1.48;;;;;;;6.97;71.58;94932.31;4998199;28;20106;-75
2021/11/09 12:43:27;;;;;;;2.53;1.55;;;;;;;6.98;71.58;94936.56;4995729;28;20423;-75
2021/11/09 12:46:06;;;;;;;2.53;1.20;;;;;;;7.02;71.12;94947.41;5002495;28;20052;-76
2021/11/09 12:48:38;;;;;;;2.75;1.88;;;;;;;7.07;70.84;94947.41;4999226;28;20425;-76
2021/11/09 12:51:09;;;;;;;1.85;1.40;;;;;;;7.13;70.47;94954.28;5007322;28;20152;-76
2021/11/09 12:53:39;;;;;;;1.10;1.00;;;;;;;6.89;70.00;94929.41;4998752;28;20251;-75
2021/11/09 12:56:12;;;;;;;3.47;1.83;;;;;;;6.91;70.12;94943.13;5001074;28;20072;-75
2021/11/09 12:58:56;;;;;;;3.85;2.75;;;;;;;6.99;70.33;94926.78;5000878;28;20126;-76
2021/11/09 13:04:20;;;;;;;2.67;1.80;;;;;;;7.33;69.49;94943.72;5000450;28;20087;-75
2021/11/09 13:09:39;;;;;;;1.90;1.17;;;;;;;7.46;66.93;94943.19;4996871;28;20444;-75
2021/11/09 13:12:09;;;;;;;1.15;0.90;;;;;;;7.51;66.96;94945.81;4995698;28;20420;-75
2021/11/09 13:14:45;;;;;;;1.35;1.05;;;;;;;7.64;66.68;94942.63;4999909;28;20534;-75
2021/11/09 13:17:16;;;;;;;1.33;1.10;;;;;;;7.63;66.69;94950.84;4998716;28;20054;-76
2021/11/09 13:19:43;;;;;;;1.42;1.10;;;;;;;7.51;66.43;94927.28;4999177;28;20468;-75
2021/11/09 13:22:11;;;;;;;8.73;4.10;;;;;;;7.60;64.88;94928.34;5002337;28;20544;-75
2021/11/09 13:24:40;;;;;;;2.13;1.40;;;;;;;7.67;65.34;94912.19;4999717;28;20040;-75
2021/11/09 13:27:08;;;;;;;2.15;1.27;;;;;;;7.65;65.71;94946.88;4996901;28;20168;-75
2021/11/09 13:29:39;;;;;;;2.08;1.75;;;;;;;7.61;65.61;94942.38;4998481;28;22401;-75
2021/11/09 13:32:09;;;;;;;1.00;1.00;;;;;;;7.53;66.32;94946.34;5001325;28;20558;-76
2021/11/09 13:34:34;;;;;;;1.45;1.08;;;;;;;7.66;65.12;94971.50;5004586;28;20044;-74
2021/11/09 13:37:00;;;;;;;0.90;0.90;;;;;;;7.65;65.22;94972.53;5002844;28;20041;-76
2021/11/09 13:39:26;;;;;;;1.20;1.10;;;;;;;7.44;64.20;94981.53;5007776;28;20028;-75
2021/11/09 13:41:51;;;;;;;1.42;1.10;;;;;;;7.22;64.86;94966.72;5001516;28;20048;-75
2021/11/09 13:44:16;;;;;;;1.80;1.27;;;;;;;7.37;65.02;94992.41;5003815;28;20045;-75
2021/11/09 13:46:44;;;;;;;1.23;1.13;;;;;;;7.42;65.60;95007.50;4995994;28;20531;-75
2021/11/09 13:49:15;;;;;;;1.35;1.00;;;;;;;7.46;65.28;94997.97;4999000;28;20044;-76
2021/11/09 13:51:49;;;;;;;3.03;1.80;;;;;;;7.31;64.08;94993.47;5004129;28;20610;-75
2021/11/09 13:54:24;;;;;;;3.95;2.13;;;;;;;7.40;64.37;95002.47;5003383;28;20625;-76
2021/11/09 13:56:52;;;;;;;;;;;;;;;7.58;64.38;95020.47;5002554;28;20531;-76
2021/11/09 13:59:24;;;;;;;1.05;1.00;;;;;;;7.59;64.11;95026.56;4999048;28;19921;-75